Time;durP1;ratioP1;P1;durP2;ratioP2;P2;SDS_P1;SDS_P2;PMS_P1;PMS_P2;Temp;Humidity;BMP_temperature;BMP_pressure;BME280_temperature;BME280_humidity;BME280_pressure;Samples;Min_cycle;Max_cycle;Signal;HPM_P1;HPM_P2
2022/07/12 00:01:25;;;;;;;2.55;1.08;;;15.30;99.90;;;;;;4984712;28;20053;-74
2022/07/12 00:03:51;;;;;;;1.50;0.60;;;15.30;99.90;;;;;;4982246;28;20576;-73
2022/07/12 00:06:16;;;;;;;1.48;0.60;;;15.20;99.90;;;;;;4985207;28;20038;-73
2022/07/12 00:08:42;;;;;;;1.50;0.63;;;15.20;99.90;;;;;;4984890;28;20382;-74
2022/07/12 00:11:07;;;;;;;2.05;0.63;;;15.20;99.90;;;;;;4984951;28;20790;-73
2022/07/12 00:13:33;;;;;;;1.77;0.47;;;15.20;99.90;;;;;;4986417;28;20380;-74
2022/07/12 00:15:59;;;;;;;1.45;0.55;;;15.10;99.90;;;;;;4984011;28;20038;-74
2022/07/12 00:18:24;;;;;;;1.75;0.50;;;15.10;99.90;;;;;;4986459;28;20033;-74
2022/07/12 00:20:50;;;;;;;1.40;0.52;;;15.00;99.90;;;;;;4988177;28;20483;-74
2022/07/12 00:23:16;;;;;;;1.08;0.43;;;15.00;99.90;;;;;;4981921;28;20030;-73
2022/07/12 00:25:42;;;;;;;1.38;0.70;;;15.00;99.90;;;;;;4985395;28;20105;-73
2022/07/12 00:28:08;;;;;;;1.08;0.60;;;14.90;99.90;;;;;;4983059;28;20121;-74
2022/07/12 00:30:34;;;;;;;1.45;0.50;;;14.90;99.90;;;;;;4984959;28;20470;-74
2022/07/12 00:32:59;;;;;;;0.95;0.60;;;14.90;99.90;;;;;;4985095;28;20044;-74
2022/07/12 00:35:25;;;;;;;0.93;0.40;;;14.80;99.90;;;;;;4983400;28;20110;-74
2022/07/12 00:37:50;;;;;;;1.95;0.60;;;14.80;99.90;;;;;;4985979;28;20026;-73
2022/07/12 00:40:16;;;;;;;2.38;0.60;;;14.80;99.90;;;;;;4986783;28;20102;-74
2022/07/12 00:42:41;;;;;;;1.45;0.60;;;14.80;99.90;;;;;;4985756;28;20466;-73
2022/07/12 00:45:08;;;;;;;1.33;0.63;;;14.80;99.90;;;;;;4982132;28;20410;-73
2022/07/12 00:47:40;;;;;;;1.15;0.55;;;14.80;99.90;;;;;;4983633;28;20045;-74
2022/07/12 00:50:11;;;;;;;2.08;0.85;;;14.70;99.90;;;;;;4987140;28;20411;-74
2022/07/12 00:52:37;;;;;;;1.60;0.70;;;14.70;99.90;;;;;;4983858;28;20513;-73
2022/07/12 00:55:07;;;;;;;1.92;0.50;;;14.70;99.90;;;;;;4986019;28;20027;-73
2022/07/12 00:57:34;;;;;;;3.03;0.57;;;14.70;99.90;;;;;;4983887;28;20035;-74
2022/07/12 00:59:59;;;;;;;1.85;0.65;;;14.70;99.90;;;;;;4986016;28;20047;-73
2022/07/12 01:02:25;;;;;;;2.28;0.60;;;14.60;99.90;;;;;;4982856;28;20085;-74
2022/07/12 01:04:53;;;;;;;3.13;0.73;;;14.60;99.90;;;;;;4982231;28;20034;-74
2022/07/12 01:07:18;;;;;;;1.98;0.65;;;14.60;99.90;;;;;;4980886;28;20034;-74
2022/07/12 01:09:44;;;;;;;1.55;0.80;;;14.50;99.90;;;;;;4983995;28;20126;-74
2022/07/12 01:12:10;;;;;;;2.78;0.60;;;14.50;99.90;;;;;;4986849;28;20060;-73
2022/07/12 01:14:37;;;;;;;1.55;0.60;;;14.50;99.90;;;;;;4987315;28;20066;-74
2022/07/12 01:17:03;;;;;;;1.67;0.60;;;14.50;99.90;;;;;;4986279;28;20066;-73
2022/07/12 01:19:29;;;;;;;0.88;0.40;;;14.40;99.90;;;;;;4986972;28;20038;-74
2022/07/12 01:21:57;;;;;;;1.58;0.60;;;14.50;99.90;;;;;;4989473;28;20034;-73
2022/07/12 01:24:22;;;;;;;1.45;0.60;;;14.50;99.90;;;;;;4988518;28;20450;-74
2022/07/12 01:26:50;;;;;;;1.58;0.60;;;14.40;99.90;;;;;;4989304;28;20121;-73
2022/07/12 01:29:16;;;;;;;2.90;0.98;;;14.40;99.90;;;;;;4987605;28;20048;-75
2022/07/12 01:31:42;;;;;;;2.53;0.82;;;14.40;99.90;;;;;;4989798;28;20030;-74
2022/07/12 01:34:08;;;;;;;1.80;0.90;;;14.40;99.90;;;;;;4989014;28;20026;-74
2022/07/12 01:36:36;;;;;;;1.80;0.98;;;14.40;99.90;;;;;;4987870;28;20042;-74
2022/07/12 01:39:03;;;;;;;1.23;0.60;;;14.40;99.90;;;;;;4986860;28;20570;-73
2022/07/12 01:41:30;;;;;;;1.98;0.70;;;14.40;99.90;;;;;;4989388;28;20073;-74
2022/07/12 01:43:56;;;;;;;2.22;1.02;;;14.40;99.90;;;;;;4988762;28;20030;-74
2022/07/12 01:46:21;;;;;;;4.03;0.73;;;14.40;99.90;;;;;;4985443;28;21944;-74
2022/07/12 01:48:47;;;;;;;2.70;1.10;;;14.40;99.90;;;;;;4989299;28;20034;-74
2022/07/12 01:51:12;;;;;;;3.13;1.10;;;14.40;99.90;;;;;;4987720;28;20050;-74
2022/07/12 01:53:38;;;;;;;3.70;1.52;;;14.40;99.90;;;;;;4988044;28;20445;-74
2022/07/12 01:56:04;;;;;;;2.00;1.30;;;14.40;99.90;;;;;;4987492;28;20046;-74
2022/07/12 01:58:30;;;;;;;2.60;1.23;;;14.40;99.90;;;;;;4986236;28;20107;-74
2022/07/12 02:00:56;;;;;;;1.45;0.77;;;14.40;99.90;;;;;;4989945;28;20045;-74
2022/07/12 02:03:22;;;;;;;2.22;0.85;;;14.40;99.90;;;;;;4987360;28;20125;-74
2022/07/12 02:05:48;;;;;;;2.55;1.00;;;14.30;99.90;;;;;;4986536;28;20550;-74
2022/07/12 02:08:13;;;;;;;1.95;1.00;;;14.30;99.90;;;;;;4987959;28;20041;-73
2022/07/12 02:10:40;;;;;;;3.65;0.93;;;14.20;99.90;;;;;;4989089;28;20053;-73
2022/07/12 02:13:06;;;;;;;1.40;0.70;;;14.20;99.90;;;;;;4986723;28;20359;-74
2022/07/12 02:15:32;;;;;;;3.08;0.70;;;14.20;99.90;;;;;;4986752;28;20044;-74
2022/07/12 02:17:58;;;;;;;1.38;0.60;;;14.10;99.90;;;;;;4987844;28;20538;-73
2022/07/12 02:20:23;;;;;;;1.45;0.60;;;14.10;99.90;;;;;;4987151;28;20078;-73
2022/07/12 02:22:49;;;;;;;1.30;0.70;;;14.00;99.90;;;;;;4988581;28;20031;-74
2022/07/12 02:25:14;;;;;;;1.98;0.60;;;14.00;99.90;;;;;;4987441;28;20464;-74
2022/07/12 02:27:40;;;;;;;2.92;0.70;;;13.90;99.90;;;;;;4986043;28;20042;-74
2022/07/12 02:30:07;;;;;;;1.35;0.50;;;13.90;99.90;;;;;;4986248;28;20035;-74
2022/07/12 02:32:33;;;;;;;1.42;0.50;;;13.80;99.90;;;;;;4985721;28;20026;-73
2022/07/12 02:34:58;;;;;;;2.53;0.60;;;13.80;99.90;;;;;;4987462;28;20072;-74
2022/07/12 02:37:25;;;;;;;1.23;0.50;;;13.70;99.90;;;;;;4983257;28;20430;-74
2022/07/12 02:39:50;;;;;;;0.95;0.57;;;13.70;99.90;;;;;;4987308;28;20084;-74
2022/07/12 02:42:16;;;;;;;4.50;0.90;;;13.70;99.90;;;;;;4987785;28;20034;-73
2022/07/12 02:44:42;;;;;;;7.85;1.70;;;13.70;99.90;;;;;;4987381;28;20030;-74
2022/07/12 02:47:07;;;;;;;2.75;0.70;;;13.70;99.90;;;;;;4986202;28;20546;-74
2022/07/12 02:49:33;;;;;;;2.15;0.90;;;13.70;99.90;;;;;;4987721;28;20479;-74
2022/07/12 02:51:58;;;;;;;1.67;0.80;;;13.70;99.90;;;;;;4987130;28;20048;-74
2022/07/12 02:54:24;;;;;;;1.52;0.77;;;13.60;99.90;;;;;;4984850;28;20037;-74
2022/07/12 02:56:50;;;;;;;3.22;1.20;;;13.60;99.90;;;;;;4987455;28;20395;-74
2022/07/12 02:59:15;;;;;;;1.40;0.80;;;13.50;99.90;;;;;;4986823;28;20034;-74
2022/07/12 03:01:41;;;;;;;1.33;0.63;;;13.50;99.90;;;;;;4982457;28;20113;-73
2022/07/12 03:04:06;;;;;;;1.23;0.50;;;13.50;99.90;;;;;;4985728;28;20038;-74
2022/07/12 03:06:32;;;;;;;1.27;0.60;;;13.50;99.90;;;;;;4998690;28;20109;-73
2022/07/12 03:08:58;;;;;;;1.60;0.65;;;13.50;99.90;;;;;;4987644;28;20039;-74
2022/07/12 03:11:23;;;;;;;1.42;0.60;;;13.40;99.90;;;;;;4985795;28;20544;-73
2022/07/12 03:13:49;;;;;;;2.97;1.40;;;13.40;99.90;;;;;;4987613;28;20569;-74
2022/07/12 03:16:14;;;;;;;1.83;1.10;;;13.40;99.90;;;;;;4980063;28;20050;-74
2022/07/12 03:18:41;;;;;;;2.35;1.50;;;13.50;99.90;;;;;;4982835;28;20035;-73
2022/07/12 03:21:07;;;;;;;2.50;1.33;;;13.50;99.90;;;;;;4985454;28;20029;-73
2022/07/12 03:23:33;;;;;;;2.42;1.48;;;13.40;99.90;;;;;;4987229;28;20402;-74
2022/07/12 03:25:58;;;;;;;3.40;1.42;;;13.40;99.90;;;;;;4986602;28;20113;-73
2022/07/12 03:28:25;;;;;;;3.03;1.65;;;13.40;99.90;;;;;;4985237;28;20418;-74
2022/07/12 03:30:51;;;;;;;2.50;1.20;;;13.40;99.90;;;;;;4986001;28;20060;-74
2022/07/12 03:33:16;;;;;;;3.15;1.10;;;13.40;99.90;;;;;;4984544;28;20538;-74
2022/07/12 03:35:42;;;;;;;2.25;1.20;;;13.30;99.90;;;;;;4986431;28;20424;-75
2022/07/12 03:38:07;;;;;;;2.85;0.80;;;13.30;99.90;;;;;;4985037;28;20045;-75
2022/07/12 03:40:34;;;;;;;1.92;1.13;;;13.30;99.90;;;;;;4985451;28;20026;-74
2022/07/12 03:43:00;;;;;;;2.90;1.50;;;13.20;99.90;;;;;;4988144;28;20034;-74
2022/07/12 03:45:25;;;;;;;4.43;1.42;;;13.20;99.90;;;;;;4981541;28;20029;-74
2022/07/12 03:47:51;;;;;;;2.17;1.00;;;13.20;99.90;;;;;;4985267;28;20042;-74
2022/07/12 03:50:17;;;;;;;2.30;1.20;;;13.20;99.90;;;;;;4985378;28;20062;-74
2022/07/12 03:52:43;;;;;;;6.80;1.10;;;13.20;99.90;;;;;;4988660;28;20054;-74
2022/07/12 03:55:11;;;;;;;2.63;1.20;;;13.20;99.90;;;;;;4985806;28;20030;-75
2022/07/12 03:57:36;;;;;;;1.63;0.60;;;13.20;99.90;;;;;;4988145;28;20113;-75
2022/07/12 04:00:06;;;;;;;1.27;0.63;;;13.20;99.90;;;;;;4985275;28;20192;-75
2022/07/12 04:02:31;;;;;;;1.73;0.50;;;13.10;99.90;;;;;;4986764;28;20116;-74
2022/07/12 04:04:57;;;;;;;1.40;0.52;;;13.10;99.90;;;;;;4986048;28;20105;-74
2022/07/12 04:07:22;;;;;;;2.25;0.47;;;13.10;99.90;;;;;;4987910;28;20066;-74
2022/07/12 04:09:48;;;;;;;2.35;0.60;;;13.10;99.90;;;;;;4986433;28;20026;-74
2022/07/12 04:12:14;;;;;;;2.15;0.80;;;13.10;99.90;;;;;;4983724;28;20482;-74
2022/07/12 04:14:40;;;;;;;2.55;0.88;;;13.10;99.90;;;;;;4987592;28;20030;-74
2022/07/12 04:17:06;;;;;;;2.70;1.50;;;13.10;99.90;;;;;;4984551;28;20046;-74
2022/07/12 04:19:33;;;;;;;3.53;1.48;;;13.00;99.90;;;;;;4984843;28;20073;-75
2022/07/12 04:21:59;;;;;;;1.90;1.20;;;13.10;99.90;;;;;;4985788;28;20027;-74
2022/07/12 04:24:25;;;;;;;3.25;1.88;;;13.10;99.90;;;;;;4985875;28;20033;-74
2022/07/12 04:26:51;;;;;;;1.77;1.50;;;13.20;99.90;;;;;;4984909;28;20181;-74
2022/07/12 04:29:17;;;;;;;3.58;2.20;;;13.20;99.90;;;;;;4980167;28;20027;-74
2022/07/12 04:31:43;;;;;;;6.57;2.42;;;13.30;99.90;;;;;;4984140;28;20031;-74
2022/07/12 04:34:09;;;;;;;4.03;3.15;;;13.30;99.90;;;;;;4984623;28;20033;-74
2022/07/12 04:36:34;;;;;;;6.00;4.75;;;13.40;99.90;;;;;;4982284;28;20038;-74
2022/07/12 04:39:00;;;;;;;6.05;4.15;;;13.50;99.90;;;;;;4980480;28;20061;-74
2022/07/12 04:41:25;;;;;;;7.65;4.30;;;13.60;99.90;;;;;;4985164;28;20066;-75
2022/07/12 04:43:51;;;;;;;5.47;4.60;;;13.70;99.90;;;;;;4986668;28;20030;-74
2022/07/12 04:46:16;;;;;;;6.32;4.93;;;13.80;99.90;;;;;;4986459;28;20512;-75
2022/07/12 04:48:42;;;;;;;10.30;5.35;;;13.90;99.90;;;;;;4984918;28;20106;-74
2022/07/12 04:51:08;;;;;;;7.90;5.00;;;14.00;99.90;;;;;;4984398;28;20085;-74
2022/07/12 04:53:33;;;;;;;5.68;4.97;;;14.10;99.90;;;;;;4987631;28;20114;-74
2022/07/12 04:55:59;;;;;;;6.57;4.32;;;14.20;99.90;;;;;;4989426;28;20093;-74
2022/07/12 04:58:24;;;;;;;6.75;3.83;;;14.20;99.90;;;;;;4986955;28;20023;-75
2022/07/12 05:00:50;;;;;;;7.32;4.57;;;14.30;99.90;;;;;;4990263;28;20022;-74
2022/07/12 05:03:16;;;;;;;4.68;3.97;;;14.50;99.90;;;;;;4985790;28;20729;-74
2022/07/12 05:05:42;;;;;;;5.53;3.58;;;14.90;99.90;;;;;;4989946;28;20018;-74
2022/07/12 05:08:07;;;;;;;4.75;2.72;;;15.30;99.90;;;;;;4985649;28;20056;-75
2022/07/12 05:10:33;;;;;;;3.20;2.78;;;15.80;99.90;;;;;;4986488;28;20027;-74
2022/07/12 05:12:58;;;;;;;2.50;1.83;;;16.40;99.90;;;;;;4978504;28;20030;-74
2022/07/12 05:15:24;;;;;;;2.53;1.95;;;16.90;99.90;;;;;;4986852;28;20026;-74
2022/07/12 05:17:50;;;;;;;2.55;2.00;;;17.40;99.90;;;;;;4986818;28;20096;-74
2022/07/12 05:20:15;;;;;;;3.55;2.28;;;17.80;99.90;;;;;;4986006;28;20467;-75
2022/07/12 05:22:41;;;;;;;2.83;2.00;;;18.20;99.90;;;;;;4988057;28;20034;-75
2022/07/12 05:25:10;;;;;;;2.97;1.67;;;18.60;99.90;;;;;;4990581;28;20334;-74
2022/07/12 05:27:36;;;;;;;4.15;2.00;;;19.00;99.90;;;;;;4986570;28;20398;-75
2022/07/12 05:30:04;;;;;;;2.90;2.08;;;19.30;99.90;;;;;;4985404;28;20027;-74
2022/07/12 05:32:29;;;;;;;4.40;2.35;;;19.60;99.90;;;;;;4986472;28;20081;-74
2022/07/12 05:34:55;;;;;;;2.90;2.03;;;20.00;99.90;;;;;;4986992;28;20023;-74
2022/07/12 05:37:23;;;;;;;3.38;2.08;;;20.20;99.90;;;;;;4985528;28;20542;-74
2022/07/12 05:39:49;;;;;;;3.10;2.35;;;20.50;99.90;;;;;;4987414;28;20022;-74
2022/07/12 05:42:14;;;;;;;3.25;2.38;;;20.70;99.90;;;;;;4985825;28;20101;-75
2022/07/12 05:44:40;;;;;;;3.40;1.80;;;20.90;99.90;;;;;;4988390;28;20422;-74
2022/07/12 05:47:05;;;;;;;2.33;1.70;;;21.00;99.90;;;;;;4984417;28;20110;-75
2022/07/12 05:49:31;;;;;;;2.55;2.17;;;21.00;99.90;;;;;;4982845;28;20450;-75
2022/07/12 05:54:40;;;;;;;4.15;2.92;;;21.10;99.90;;;;;;4994189;28;20030;-75
2022/07/12 05:57:06;;;;;;;6.18;3.22;;;21.00;99.90;;;;;;4993660;28;20043;-74
2022/07/12 05:59:34;;;;;;;7.28;4.07;;;21.10;99.90;;;;;;4991293;28;20034;-75
2022/07/12 06:01:59;;;;;;;4.47;3.53;;;21.10;99.90;;;;;;4992767;28;20073;-75
2022/07/12 06:04:25;;;;;;;4.90;3.35;;;21.10;99.90;;;;;;4992261;28;20042;-74
2022/07/12 06:06:50;;;;;;;3.50;3.20;;;21.10;99.90;;;;;;4993151;28;20485;-74
2022/07/12 06:09:16;;;;;;;3.92;3.53;;;21.10;99.90;;;;;;4991788;28;20026;-74
2022/07/12 06:11:41;;;;;;;4.75;3.30;;;21.10;99.90;;;;;;4993359;28;20117;-75
2022/07/12 06:14:07;;;;;;;4.65;3.65;;;21.20;99.90;;;;;;4993073;28;20063;-74
2022/07/12 06:16:32;;;;;;;4.10;3.38;;;21.30;99.90;;;;;;4988503;28;20491;-74
2022/07/12 06:18:58;;;;;;;3.65;3.25;;;21.30;99.90;;;;;;4991096;28;20030;-74
2022/07/12 06:21:23;;;;;;;4.40;3.42;;;21.40;99.90;;;;;;4988166;28;20031;-74
2022/07/12 06:23:49;;;;;;;3.58;3.05;;;21.50;99.90;;;;;;4993163;28;20387;-74
2022/07/12 06:26:14;;;;;;;3.80;2.80;;;21.60;99.90;;;;;;4993055;28;20038;-74
2022/07/12 06:28:41;;;;;;;4.90;2.90;;;21.60;99.90;;;;;;4988813;28;20486;-74
2022/07/12 06:31:07;;;;;;;4.60;2.70;;;21.50;99.90;;;;;;4988049;28;20030;-75
2022/07/12 06:33:32;;;;;;;4.75;3.10;;;21.50;99.90;;;;;;4993140;28;20049;-75
2022/07/12 06:35:58;;;;;;;5.78;3.75;;;21.40;99.90;;;;;;4992821;28;20498;-74
2022/07/12 06:38:23;;;;;;;3.33;2.47;;;21.40;99.90;;;;;;4987321;28;20304;-73
2022/07/12 06:40:49;;;;;;;4.00;3.15;;;21.50;99.90;;;;;;4989397;28;20478;-74
2022/07/12 06:43:14;;;;;;;3.97;3.03;;;21.50;99.90;;;;;;4986661;28;20039;-74
2022/07/12 06:45:40;;;;;;;4.93;2.80;;;21.50;99.90;;;;;;4991376;28;20039;-75
2022/07/12 06:48:06;;;;;;;3.08;2.58;;;21.50;99.90;;;;;;4991587;28;20030;-74
2022/07/12 06:50:32;;;;;;;4.68;2.60;;;21.60;99.90;;;;;;4992397;28;20058;-74
2022/07/12 06:52:57;;;;;;;5.07;2.63;;;21.70;99.90;;;;;;4987624;28;20046;-74
2022/07/12 06:55:23;;;;;;;4.18;3.33;;;21.90;99.90;;;;;;4990288;28;20041;-74
2022/07/12 06:57:49;;;;;;;3.33;2.83;;;22.00;99.90;;;;;;4992282;28;20040;-74
2022/07/12 07:00:15;;;;;;;4.25;3.65;;;22.00;99.90;;;;;;4991956;28;20031;-74
2022/07/12 07:02:40;;;;;;;4.25;3.38;;;22.10;99.90;;;;;;4991509;28;20037;-73
2022/07/12 07:05:07;;;;;;;5.97;4.60;;;22.20;99.90;;;;;;4990637;28;20030;-73
2022/07/12 07:07:33;;;;;;;6.22;3.83;;;22.40;99.90;;;;;;4992578;28;20076;-74
2022/07/12 07:09:59;;;;;;;5.07;4.57;;;22.50;99.90;;;;;;4992798;28;20044;-74
2022/07/12 07:12:24;;;;;;;6.05;5.45;;;22.60;99.90;;;;;;4989712;28;20478;-74
2022/07/12 07:14:50;;;;;;;5.75;5.07;;;22.80;99.90;;;;;;4990516;28;20023;-74
2022/07/12 07:17:17;;;;;;;5.28;4.78;;;22.90;99.90;;;;;;4991290;28;20446;-74
2022/07/12 07:19:43;;;;;;;6.70;5.03;;;22.90;99.90;;;;;;4992165;28;20026;-74
2022/07/12 07:22:09;;;;;;;7.05;5.60;;;23.10;99.90;;;;;;4992319;28;20390;-74
2022/07/12 07:24:35;;;;;;;5.50;5.00;;;23.20;99.90;;;;;;4991585;28;20034;-74
2022/07/12 07:27:00;;;;;;;7.00;4.50;;;23.50;99.90;;;;;;4992284;28;20422;-74
2022/07/12 07:32:10;;;;;;;4.63;3.47;;;23.70;99.90;;;;;;4991076;28;20093;-74
2022/07/12 07:34:36;;;;;;;6.13;4.32;;;23.80;99.90;;;;;;4989960;28;20435;-74
2022/07/12 07:37:01;;;;;;;4.18;3.60;;;23.90;99.90;;;;;;4991623;28;20395;-73
2022/07/12 07:39:27;;;;;;;3.63;3.20;;;24.00;99.90;;;;;;4991928;28;20097;-74
2022/07/12 07:41:52;;;;;;;3.33;3.03;;;23.90;99.90;;;;;;4992064;28;20033;-74
2022/07/12 07:44:18;;;;;;;4.28;2.88;;;23.90;99.90;;;;;;4989491;28;20022;-74
2022/07/12 07:46:43;;;;;;;3.95;3.35;;;23.90;99.90;;;;;;4991804;28;20045;-74
2022/07/12 07:49:09;;;;;;;3.70;3.40;;;23.80;99.90;;;;;;4990203;28;20438;-74
2022/07/12 07:51:35;;;;;;;4.82;4.22;;;23.80;99.90;;;;;;4990867;28;20061;-74
2022/07/12 07:54:02;;;;;;;5.97;4.18;;;23.80;99.90;;;;;;4983579;28;20046;-74
2022/07/12 07:56:28;;;;;;;4.32;3.90;;;23.80;99.90;;;;;;4986231;28;20042;-74
2022/07/12 07:58:54;;;;;;;4.97;3.75;;;24.00;99.90;;;;;;4986156;28;20169;-74
2022/07/12 08:01:19;;;;;;;4.32;3.92;;;24.10;99.90;;;;;;4983895;28;20042;-75
2022/07/12 08:03:45;;;;;;;5.38;4.25;;;24.10;99.90;;;;;;4985122;28;20610;-75
2022/07/12 08:06:11;;;;;;;5.28;4.45;;;24.20;99.90;;;;;;4980305;28;20113;-73
2022/07/12 08:08:36;;;;;;;4.93;4.32;;;24.30;99.90;;;;;;4988802;28;20030;-74
2022/07/12 08:11:02;;;;;;;6.70;5.07;;;24.50;99.90;;;;;;4988612;28;20033;-74
2022/07/12 08:13:28;;;;;;;8.27;4.68;;;24.70;99.90;;;;;;4991523;28;20486;-75
2022/07/12 08:15:54;;;;;;;4.93;4.50;;;24.90;99.90;;;;;;4988021;28;20124;-73
2022/07/12 08:18:19;;;;;;;4.20;3.05;;;25.00;99.90;;;;;;4987402;28;20026;-74
2022/07/12 08:20:45;;;;;;;3.75;3.28;;;25.10;99.70;;;;;;4982678;28;20113;-74
2022/07/12 08:23:11;;;;;;;4.90;3.58;;;25.10;99.40;;;;;;4989495;28;20038;-74
2022/07/12 08:25:37;;;;;;;4.22;3.83;;;25.30;98.80;;;;;;4985851;28;20447;-74
2022/07/12 08:28:03;;;;;;;4.78;3.88;;;25.30;98.40;;;;;;4991127;28;20089;-74
2022/07/12 08:30:29;;;;;;;4.75;4.35;;;25.30;98.10;;;;;;4995195;28;20030;-74
2022/07/12 08:32:55;;;;;;;5.82;5.22;;;25.30;97.80;;;;;;4995428;28;20037;-74
2022/07/12 08:35:20;;;;;;;5.40;5.00;;;25.30;97.80;;;;;;4994219;28;20099;-74
2022/07/12 08:37:46;;;;;;;5.70;5.20;;;25.30;97.60;;;;;;4995233;28;20034;-74
2022/07/12 08:40:11;;;;;;;7.85;5.57;;;25.30;97.50;;;;;;4986744;28;20493;-75
2022/07/12 08:42:41;;;;;;;5.63;5.10;;;25.30;97.40;;;;;;4993949;28;20042;-74
2022/07/12 08:45:08;;;;;;;6.43;5.13;;;25.40;97.20;;;;;;4995152;28;20061;-74
2022/07/12 08:47:33;;;;;;;6.00;5.50;;;25.40;97.10;;;;;;4992989;28;20073;-74
2022/07/12 08:50:19;;;;;;;5.75;4.63;;;25.50;96.90;;;;;;4996145;28;20061;-73
2022/07/12 08:52:51;;;;;;;6.15;5.43;;;25.60;96.70;;;;;;4993935;28;20070;-75
2022/07/12 08:55:18;;;;;;;;;;;25.60;96.40;;;;;;4991937;28;20521;-75
2022/07/12 08:57:44;;;;;;;5.68;4.40;;;25.70;96.50;;;;;;4992809;28;20374;-75
2022/07/12 09:00:11;;;;;;;6.05;5.15;;;25.70;95.90;;;;;;4995337;28;20475;-75
2022/07/12 09:02:50;;;;;;;6.72;4.80;;;25.60;95.80;;;;;;4993471;28;20041;-75
2022/07/12 09:05:18;;;;;;;4.18;3.70;;;25.60;95.40;;;;;;4992470;28;20061;-75
2022/07/12 09:07:44;;;;;;;7.03;4.30;;;25.50;95.10;;;;;;4994627;28;20105;-75
2022/07/12 09:10:11;;;;;;;5.95;3.90;;;25.60;94.90;;;;;;4981040;28;20105;-75
2022/07/12 09:12:37;;;;;;;5.82;4.53;;;25.60;94.70;;;;;;4993269;28;20152;-76
2022/07/12 09:15:23;;;;;;;4.53;3.75;;;25.70;94.80;;;;;;4993158;28;20101;-75
2022/07/12 09:17:55;;;;;;;5.90;4.60;;;25.80;94.20;;;;;;4991987;28;20046;-75
2022/07/12 09:20:20;;;;;;;4.20;3.35;;;25.70;94.00;;;;;;4993389;28;20035;-72
2022/07/12 09:22:54;;;;;;;4.88;3.42;;;25.60;93.80;;;;;;4992338;28;20030;-72
2022/07/12 09:25:20;;;;;;;3.78;3.47;;;25.60;93.60;;;;;;4993830;28;20052;-76
2022/07/12 09:27:57;;;;;;;2.88;2.30;;;25.60;93.50;;;;;;4993236;28;20486;-75
2022/07/12 09:30:25;;;;;;;11.35;6.43;;;25.60;93.50;;;;;;4990617;28;20088;-75
2022/07/12 09:36:06;;;;;;;3.75;3.17;;;25.80;93.10;;;;;;4993404;28;20057;-75
2022/07/12 09:38:33;;;;;;;3.78;3.10;;;25.90;92.90;;;;;;4991286;28;20034;-76
2022/07/12 09:41:00;;;;;;;3.97;2.35;;;25.90;92.70;;;;;;4993345;28;20487;-75
2022/07/12 09:43:27;;;;;;;4.13;3.80;;;26.00;92.50;;;;;;4993302;28;20038;-72
2022/07/12 09:45:53;;;;;;;3.85;3.15;;;26.10;92.20;;;;;;4990754;28;20041;-75
2022/07/12 09:48:22;;;;;;;4.70;3.42;;;26.10;92.20;;;;;;4985960;28;20027;-74
2022/07/12 09:50:50;;;;;;;3.15;2.38;;;26.20;91.80;;;;;;4988128;28;20034;-74
2022/07/12 09:53:27;;;;;;;2.50;2.03;;;26.20;91.60;;;;;;4991992;28;20050;-74
2022/07/12 09:55:52;;;;;;;4.07;2.75;;;26.30;91.60;;;;;;4991434;28;20026;-74
2022/07/12 09:58:30;;;;;;;4.25;3.78;;;26.30;91.30;;;;;;4984666;28;20034;-74
2022/07/12 10:00:59;;;;;;;3.65;3.25;;;26.50;91.30;;;;;;4986770;28;20486;-75
2022/07/12 10:03:27;;;;;;;2.97;2.75;;;26.50;91.10;;;;;;4973955;28;20122;-74
2022/07/12 10:05:54;;;;;;;4.93;3.60;;;26.50;90.90;;;;;;4993728;28;20364;-74
2022/07/12 10:08:21;;;;;;;4.38;3.97;;;26.50;90.90;;;;;;4980926;28;20030;-74
2022/07/12 10:10:48;;;;;;;3.97;3.67;;;26.60;90.60;;;;;;4991818;28;20030;-74
2022/07/12 10:13:14;;;;;;;4.68;4.20;;;26.60;90.80;;;;;;4984608;28;20568;-74
2022/07/12 10:15:43;;;;;;;6.80;4.82;;;26.70;90.60;;;;;;4993944;28;20026;-73
2022/07/12 10:18:16;;;;;;;5.78;5.18;;;26.70;90.20;;;;;;4990046;28;20099;-73
2022/07/12 10:20:45;;;;;;;6.55;4.32;;;26.80;90.20;;;;;;4984498;28;20489;-74
2022/07/12 10:23:40;;;;;;;5.65;3.97;;;26.90;90.20;;;;;;4977992;28;20118;-74
2022/07/12 10:26:16;;;;;;;4.53;4.13;;;27.00;90.10;;;;;;4974101;28;20037;-74
2022/07/12 10:29:02;;;;;;;4.07;3.70;;;27.10;90.00;;;;;;4985926;28;20052;-73
2022/07/12 10:31:47;;;;;;;3.35;3.05;;;27.20;89.70;;;;;;4984482;28;20037;-74
2022/07/12 10:34:24;;;;;;;2.85;2.22;;;27.30;88.30;;;;;;4990954;28;20033;-74
2022/07/12 10:37:00;;;;;;;3.13;2.60;;;27.40;87.80;;;;;;4985520;28;20039;-73
2022/07/12 10:39:27;;;;;;;3.72;2.17;;;27.40;87.20;;;;;;4988480;28;20042;-74
2022/07/12 10:42:10;;;;;;;3.30;3.00;;;27.50;86.30;;;;;;4990101;28;20026;-75
2022/07/12 10:44:37;;;;;;;2.90;2.42;;;27.60;85.60;;;;;;4992938;28;20437;-76
2022/07/12 10:47:04;;;;;;;2.40;2.20;;;27.60;84.20;;;;;;4992976;28;20181;-76
2022/07/12 10:49:32;;;;;;;3.90;2.15;;;27.60;84.60;;;;;;4995501;28;20110;-75
2022/07/12 10:52:09;;;;;;;2.85;2.55;;;27.60;84.40;;;;;;4993553;28;20042;-76
2022/07/12 10:54:50;;;;;;;5.40;2.50;;;27.70;83.80;;;;;;4994285;28;20026;-75
2022/07/12 10:57:36;;;;;;;2.20;1.88;;;27.70;83.40;;;;;;4993497;28;20061;-75
2022/07/12 11:00:07;;;;;;;2.42;2.13;;;27.80;83.10;;;;;;4992615;28;20018;-75
2022/07/12 11:02:33;;;;;;;4.70;2.47;;;27.90;82.50;;;;;;4992610;28;20026;-76
2022/07/12 11:04:58;;;;;;;3.00;2.70;;;28.00;81.30;;;;;;4990807;28;20078;-76
2022/07/12 11:07:25;;;;;;;3.40;2.80;;;28.10;80.70;;;;;;4990831;28;20050;-76
2022/07/12 11:09:54;;;;;;;2.58;2.05;;;28.20;81.40;;;;;;4993111;28;20209;-76
2022/07/12 11:12:21;;;;;;;3.13;2.45;;;28.30;79.90;;;;;;4993216;28;20034;-76
2022/07/12 11:14:46;;;;;;;3.17;2.22;;;28.20;79.80;;;;;;5004871;28;20023;-76
2022/07/12 11:17:12;;;;;;;2.92;2.63;;;28.20;79.60;;;;;;4991019;28;20052;-73
2022/07/12 11:19:38;;;;;;;3.53;2.63;;;28.10;78.60;;;;;;4994406;28;20026;-74
2022/07/12 11:22:04;;;;;;;3.15;2.42;;;28.10;78.90;;;;;;4994234;28;20022;-75
2022/07/12 11:24:37;;;;;;;3.55;1.27;;;28.00;78.90;;;;;;4994662;28;20031;-75
2022/07/12 11:27:03;;;;;;;3.58;1.90;;;27.90;79.50;;;;;;4992681;28;20602;-75
2022/07/12 11:29:29;;;;;;;2.28;1.52;;;28.00;78.60;;;;;;4977314;28;20045;-75
2022/07/12 11:32:06;;;;;;;2.72;1.98;;;28.10;77.80;;;;;;4984477;28;20022;-74
2022/07/12 11:34:34;;;;;;;1.98;1.75;;;28.30;77.70;;;;;;4993160;28;20113;-75
2022/07/12 11:37:01;;;;;;;4.60;2.30;;;28.50;76.30;;;;;;4993245;28;20117;-75
2022/07/12 11:39:32;;;;;;;2.95;1.75;;;28.60;75.00;;;;;;4990175;28;20031;-74
2022/07/12 11:41:58;;;;;;;3.33;2.75;;;28.70;75.60;;;;;;4992670;28;20386;-75
2022/07/12 11:44:43;;;;;;;2.45;2.03;;;28.80;75.00;;;;;;4991919;28;20030;-75
2022/07/12 11:47:08;;;;;;;2.10;1.80;;;28.90;75.30;;;;;;4991584;28;20045;-75
2022/07/12 11:49:34;;;;;;;3.22;1.75;;;28.90;75.50;;;;;;4990434;28;20030;-74
2022/07/12 11:52:00;;;;;;;3.25;2.38;;;29.00;75.20;;;;;;4991905;28;20042;-74
2022/07/12 11:54:25;;;;;;;2.67;2.08;;;29.00;74.60;;;;;;4991536;28;20034;-74
2022/07/12 11:57:10;;;;;;;2.78;2.50;;;29.10;73.80;;;;;;4990721;28;20504;-74
2022/07/12 11:59:36;;;;;;;2.50;1.70;;;29.10;73.80;;;;;;4989735;28;20022;-75
2022/07/12 12:02:10;;;;;;;2.85;1.92;;;29.10;73.90;;;;;;4990369;28;20045;-75
2022/07/12 12:04:53;;;;;;;4.20;1.45;;;29.00;73.60;;;;;;4990225;28;20130;-75
2022/07/12 12:07:21;;;;;;;3.22;1.33;;;29.10;73.40;;;;;;4987581;28;20026;-74
2022/07/12 12:10:06;;;;;;;5.68;1.98;;;29.20;74.00;;;;;;4987272;28;20431;-74
2022/07/12 12:12:49;;;;;;;2.55;1.88;;;29.30;73.00;;;;;;4989226;28;20038;-75
2022/07/12 12:15:16;;;;;;;2.65;2.22;;;29.40;72.40;;;;;;4981109;28;20494;-74
2022/07/12 12:17:52;;;;;;;4.50;1.70;;;29.40;72.40;;;;;;4989576;28;20065;-74
2022/07/12 12:20:23;;;;;;;3.15;1.70;;;29.40;72.50;;;;;;4988529;28;20038;-74
2022/07/12 12:22:56;;;;;;;2.33;1.50;;;29.40;72.30;;;;;;4991959;28;20034;-74
2022/07/12 12:25:23;;;;;;;3.50;1.58;;;29.40;72.50;;;;;;4988522;28;20080;-74
2022/07/12 12:28:03;;;;;;;2.95;2.13;;;29.40;72.60;;;;;;4990943;28;20040;-74
2022/07/12 12:30:31;;;;;;;2.95;1.83;;;29.40;72.20;;;;;;4988759;28;20030;-74
2022/07/12 12:33:06;;;;;;;4.10;2.10;;;29.30;71.60;;;;;;4991660;28;20037;-75
2022/07/12 12:35:37;;;;;;;7.45;1.73;;;29.40;71.40;;;;;;4991665;28;20113;-75
2022/07/12 12:38:10;;;;;;;9.32;1.80;;;29.40;71.30;;;;;;4989155;28;20027;-74
2022/07/12 12:40:37;;;;;;;3.53;1.42;;;29.40;71.70;;;;;;4991614;28;20530;-74
2022/07/12 12:43:18;;;;;;;2.63;0.80;;;29.40;70.60;;;;;;4983480;28;20418;-74
2022/07/12 12:45:55;;;;;;;2.72;1.00;;;29.40;71.70;;;;;;4985452;28;20026;-75
2022/07/12 12:48:26;;;;;;;1.80;0.70;;;29.50;70.80;;;;;;4986300;28;20022;-74
2022/07/12 12:51:10;;;;;;;1.55;1.00;;;29.50;70.70;;;;;;4985143;28;20463;-75
2022/07/12 12:53:38;;;;;;;2.13;1.73;;;29.60;70.30;;;;;;4982841;28;20041;-74
2022/07/12 12:56:14;;;;;;;2.97;1.20;;;29.60;69.50;;;;;;4989585;28;20110;-74
2022/07/12 12:58:41;;;;;;;2.88;1.52;;;29.40;68.80;;;;;;4990516;28;20042;-74